Time;durP1;ratioP1;P1;durP2;ratioP2;P2;SDS_P1;SDS_P2;PMS_P1;PMS_P2;Temp;Humidity;BMP_temperature;BMP_pressure;BME280_temperature;BME280_humidity;BME280_pressure;Samples;Min_cycle;Max_cycle;Signal;HPM_P1;HPM_P2
2021/08/13 00:00:34;;;;;;;8.48;7.68;;;30.10;66.20;;;;;;5022057;28;20442;-67
2021/08/13 00:02:59;;;;;;;9.05;7.60;;;30.00;66.40;;;;;;5024352;28;20106;-68
2021/08/13 00:05:25;;;;;;;8.55;7.70;;;30.10;66.10;;;;;;5027672;28;20030;-67
2021/08/13 00:07:50;;;;;;;8.75;7.95;;;30.10;65.90;;;;;;5024045;28;20069;-67
2021/08/13 00:10:16;;;;;;;9.70;7.95;;;30.10;66.30;;;;;;5028398;28;20033;-67
2021/08/13 00:12:41;;;;;;;8.15;7.47;;;30.00;65.80;;;;;;5009745;28;20556;-68
2021/08/13 00:15:08;;;;;;;9.52;7.38;;;30.00;65.80;;;;;;5027271;28;20053;-67
2021/08/13 00:17:34;;;;;;;9.60;7.80;;;30.00;66.00;;;;;;5021093;28;20064;-68
2021/08/13 00:19:59;;;;;;;9.95;8.32;;;30.10;66.10;;;;;;5028215;28;20105;-67
2021/08/13 00:22:25;;;;;;;14.40;8.13;;;30.00;65.70;;;;;;5021652;28;20037;-67
2021/08/13 00:24:51;;;;;;;9.10;8.07;;;30.00;65.90;;;;;;5022560;28;20056;-66
2021/08/13 00:27:17;;;;;;;9.65;7.32;;;30.00;66.00;;;;;;5010597;28;20052;-66
2021/08/13 00:29:43;;;;;;;10.30;7.93;;;30.00;66.40;;;;;;5015797;28;20033;-67
2021/08/13 00:32:08;;;;;;;9.23;8.38;;;30.00;66.40;;;;;;5034796;28;20063;-66
2021/08/13 00:34:34;;;;;;;10.50;8.52;;;29.90;66.30;;;;;;5024835;28;20079;-67
2021/08/13 00:36:59;;;;;;;9.32;8.32;;;29.90;66.60;;;;;;5027958;28;20057;-67
2021/08/13 00:39:25;;;;;;;9.50;7.90;;;29.90;66.50;;;;;;5014826;28;20038;-66
2021/08/13 00:41:51;;;;;;;8.93;7.95;;;29.90;66.30;;;;;;5027559;28;20053;-66
2021/08/13 00:44:16;;;;;;;9.05;8.15;;;29.90;66.70;;;;;;5007045;28;20468;-67
2021/08/13 00:46:42;;;;;;;9.07;7.85;;;29.80;66.40;;;;;;5008419;28;20041;-67
2021/08/13 00:49:07;;;;;;;9.32;8.48;;;29.80;67.00;;;;;;5011395;28;20065;-67
2021/08/13 00:51:34;;;;;;;9.55;8.65;;;29.60;69.60;;;;;;5008125;28;20063;-68
2021/08/13 00:54:00;;;;;;;10.82;8.88;;;29.50;69.40;;;;;;5003063;28;20148;-68
2021/08/13 00:59:47;;;;;;;12.93;10.73;;;29.10;77.40;;;;;;4991536;28;20447;-67
2021/08/13 01:02:13;;;;;;;12.80;10.55;;;28.90;77.30;;;;;;5007350;28;20041;-67
2021/08/13 01:04:39;;;;;;;11.77;10.65;;;28.90;78.70;;;;;;5023317;28;20087;-68
2021/08/13 01:07:09;;;;;;;12.15;10.95;;;28.80;79.20;;;;;;5026885;28;20060;-67
2021/08/13 01:09:38;;;;;;;11.00;9.93;;;28.80;79.70;;;;;;5019391;28;20051;-67
2021/08/13 01:12:25;;;;;;;11.30;10.30;;;28.70;80.50;;;;;;5008104;28;20052;-67
2021/08/13 01:15:12;;;;;;;12.38;10.02;;;28.70;82.30;;;;;;5002684;28;21758;-67
2021/08/13 01:17:45;;;;;;;10.35;9.40;;;28.80;83.00;;;;;;5024399;28;20041;-67
2021/08/13 01:20:32;;;;;;;12.00;9.45;;;28.60;83.10;;;;;;5027247;28;20046;-67
2021/08/13 01:23:21;;;;;;;10.45;9.40;;;28.70;84.10;;;;;;4992319;28;20038;-67
2021/08/13 01:25:52;;;;;;;12.02;10.02;;;28.60;84.70;;;;;;5002491;28;20163;-68
2021/08/13 01:28:54;;;;;;;14.43;9.63;;;28.20;85.00;;;;;;5012378;28;20480;-67
2021/08/13 01:31:22;;;;;;;11.20;9.40;;;28.50;85.50;;;;;;4957404;28;20050;-67
2021/08/13 01:33:54;;;;;;;12.23;9.68;;;28.20;85.50;;;;;;5035578;28;20095;-62
2021/08/13 01:36:22;;;;;;;11.88;9.38;;;28.30;85.50;;;;;;5022177;28;20442;-66
2021/08/13 01:38:48;;;;;;;10.32;8.90;;;28.20;85.20;;;;;;5023643;28;20040;-67
2021/08/13 01:41:15;;;;;;;9.93;8.68;;;28.30;84.10;;;;;;5021496;28;20116;-67
2021/08/13 01:43:43;;;;;;;9.48;8.50;;;28.40;83.40;;;;;;5028130;28;20037;-67
2021/08/13 01:46:10;;;;;;;9.48;8.40;;;28.40;83.60;;;;;;5021722;28;20041;-67
2021/08/13 01:48:37;;;;;;;9.82;8.30;;;28.30;84.20;;;;;;5026428;28;20317;-67
2021/08/13 01:51:03;;;;;;;10.30;8.90;;;28.40;84.00;;;;;;5007964;28;20113;-67
2021/08/13 01:53:31;;;;;;;10.88;8.70;;;28.30;83.80;;;;;;5006544;28;20042;-66
2021/08/13 01:55:57;;;;;;;9.73;8.85;;;28.40;84.00;;;;;;5003193;28;20057;-67
2021/08/13 01:58:23;;;;;;;9.68;8.68;;;28.40;84.20;;;;;;5011662;28;20096;-66
2021/08/13 02:00:53;;;;;;;9.93;8.98;;;28.50;84.10;;;;;;5010989;28;20038;-66
2021/08/13 02:03:19;;;;;;;12.52;9.25;;;28.50;84.20;;;;;;5012894;28;20045;-66
2021/08/13 02:05:47;;;;;;;9.38;8.57;;;28.50;83.30;;;;;;5006686;28;21036;-67
2021/08/13 02:08:13;;;;;;;10.02;9.00;;;28.50;83.80;;;;;;5004407;28;20038;-66
2021/08/13 02:10:42;;;;;;;9.93;8.80;;;28.50;83.80;;;;;;5010415;28;20281;-67
2021/08/13 02:13:08;;;;;;;11.43;8.38;;;28.50;84.50;;;;;;5005657;28;20149;-67
2021/08/13 02:15:36;;;;;;;10.05;8.38;;;28.50;83.30;;;;;;5025810;28;20030;-66
2021/08/13 02:18:17;;;;;;;11.65;8.52;;;28.50;83.30;;;;;;5026328;28;20034;-67
2021/08/13 02:20:46;;;;;;;9.60;8.70;;;28.50;85.10;;;;;;5014607;28;20045;-67
2021/08/13 02:23:12;;;;;;;9.35;8.50;;;28.50;84.50;;;;;;5011692;28;20037;-67
2021/08/13 02:25:37;;;;;;;9.65;8.68;;;28.50;84.40;;;;;;5029734;28;20060;-66
2021/08/13 02:28:03;;;;;;;10.35;8.73;;;28.40;84.20;;;;;;5024340;28;20116;-67
2021/08/13 02:30:29;;;;;;;9.95;8.95;;;28.50;84.30;;;;;;5029565;28;20033;-66
2021/08/13 02:32:55;;;;;;;12.43;8.70;;;28.40;84.20;;;;;;5001642;28;20446;-66
2021/08/13 02:35:21;;;;;;;10.00;9.00;;;28.40;84.20;;;;;;5012097;28;20050;-66
2021/08/13 02:37:54;;;;;;;9.68;8.88;;;28.30;84.40;;;;;;5008700;28;20104;-67
2021/08/13 02:40:27;;;;;;;9.93;9.02;;;28.40;84.40;;;;;;5023773;28;20132;-66
2021/08/13 02:42:58;;;;;;;9.70;8.75;;;28.30;85.10;;;;;;5029065;28;20045;-66
2021/08/13 02:45:25;;;;;;;10.48;9.57;;;28.40;85.30;;;;;;5026935;28;20068;-66
2021/08/13 02:47:55;;;;;;;10.88;8.95;;;28.40;85.00;;;;;;5028683;28;20034;-66
2021/08/13 02:50:23;;;;;;;9.88;8.98;;;28.50;85.60;;;;;;5007753;28;20041;-66
2021/08/13 02:53:00;;;;;;;10.48;8.95;;;28.50;85.30;;;;;;5010358;28;20076;-66
2021/08/13 02:55:33;;;;;;;11.43;9.95;;;28.40;85.90;;;;;;5011313;28;20045;-67
2021/08/13 02:58:02;;;;;;;9.38;8.45;;;28.40;86.30;;;;;;5026222;28;20376;-66
2021/08/13 03:00:28;;;;;;;10.27;8.23;;;28.40;85.40;;;;;;5023324;28;20115;-67
2021/08/13 03:02:55;;;;;;;9.77;8.77;;;28.40;85.20;;;;;;5028984;28;20038;-66
2021/08/13 03:05:24;;;;;;;9.13;8.00;;;28.30;86.30;;;;;;5023748;28;20576;-66
2021/08/13 03:07:51;;;;;;;11.88;8.75;;;28.30;86.90;;;;;;5006544;28;20495;-67
2021/08/13 03:10:17;;;;;;;8.65;7.93;;;28.30;86.00;;;;;;5013821;28;20034;-67
2021/08/13 03:12:44;;;;;;;9.07;8.13;;;28.30;86.40;;;;;;5012215;28;20053;-67
2021/08/13 03:15:10;;;;;;;10.30;8.93;;;28.20;86.90;;;;;;5025260;28;20045;-67
2021/08/13 03:17:37;;;;;;;11.10;10.10;;;28.10;88.00;;;;;;5025499;28;20510;-67
2021/08/13 03:20:04;;;;;;;10.18;8.98;;;28.10;88.00;;;;;;5004218;28;20038;-66
2021/08/13 03:22:30;;;;;;;11.70;9.30;;;28.20;88.00;;;;;;5013499;28;20037;-67
2021/08/13 03:24:56;;;;;;;10.23;9.23;;;28.30;87.90;;;;;;5010369;28;20038;-67
2021/08/13 03:27:23;;;;;;;13.40;8.65;;;28.10;88.50;;;;;;5009365;28;20026;-66
2021/08/13 03:29:48;;;;;;;13.55;9.63;;;28.20;88.80;;;;;;5006165;28;20164;-63
2021/08/13 03:32:17;;;;;;;12.32;9.43;;;28.20;88.10;;;;;;5013590;28;20072;-67
2021/08/13 03:34:43;;;;;;;10.73;9.73;;;28.20;89.80;;;;;;5013340;28;20096;-67
2021/08/13 03:37:09;;;;;;;11.38;9.45;;;28.10;89.80;;;;;;5009503;28;20034;-67
2021/08/13 03:39:34;;;;;;;10.68;9.77;;;28.10;90.00;;;;;;5025316;28;20052;-67
2021/08/13 03:42:00;;;;;;;11.05;9.85;;;28.10;90.20;;;;;;5023649;28;20388;-67
2021/08/13 03:44:25;;;;;;;10.82;9.85;;;28.00;90.30;;;;;;5026068;28;20128;-66
2021/08/13 03:46:51;;;;;;;10.63;9.63;;;28.00;90.50;;;;;;5022650;28;20120;-66
2021/08/13 03:49:16;;;;;;;11.95;10.68;;;27.90;90.90;;;;;;5018913;28;20045;-67
2021/08/13 03:51:42;;;;;;;11.68;10.48;;;28.00;90.50;;;;;;5008864;28;20116;-66
2021/08/13 03:54:08;;;;;;;11.40;10.43;;;28.00;90.50;;;;;;5011987;28;20050;-67
2021/08/13 03:56:34;;;;;;;12.73;11.60;;;27.90;90.90;;;;;;4974773;28;20038;-66
2021/08/13 03:59:00;;;;;;;12.75;11.45;;;27.80;90.70;;;;;;5019333;28;20422;-66
2021/08/13 04:01:26;;;;;;;11.88;10.65;;;27.80;90.80;;;;;;4993723;28;20104;-66
2021/08/13 04:03:51;;;;;;;13.98;11.05;;;27.80;90.70;;;;;;5001919;28;20507;-67
2021/08/13 04:06:17;;;;;;;11.07;9.90;;;27.90;90.40;;;;;;5005917;28;20080;-67
2021/08/13 04:08:43;;;;;;;13.98;9.85;;;27.90;90.00;;;;;;5009110;28;20060;-67
2021/08/13 04:11:08;;;;;;;12.05;10.25;;;27.90;89.60;;;;;;5021998;28;20137;-66
2021/08/13 04:13:34;;;;;;;10.70;9.68;;;27.90;89.70;;;;;;5016407;28;20089;-66
2021/08/13 04:15:59;;;;;;;11.13;10.00;;;27.80;89.90;;;;;;5027350;28;20087;-67
2021/08/13 04:18:25;;;;;;;11.30;10.05;;;27.80;89.40;;;;;;5007529;28;20038;-67
2021/08/13 04:20:50;;;;;;;11.60;9.57;;;27.80;88.90;;;;;;5027971;28;20034;-66
2021/08/13 04:23:16;;;;;;;14.32;10.27;;;27.80;88.20;;;;;;5023964;28;20140;-67
2021/08/13 04:25:42;;;;;;;11.50;10.32;;;27.80;88.30;;;;;;5024044;28;20044;-67
2021/08/13 04:28:07;;;;;;;11.40;9.40;;;27.80;87.80;;;;;;5021900;28;20064;-67
2021/08/13 04:30:33;;;;;;;11.85;9.85;;;27.80;87.60;;;;;;5006768;28;20045;-67
2021/08/13 04:32:58;;;;;;;9.25;8.45;;;27.70;88.20;;;;;;5023620;28;20395;-67
2021/08/13 04:35:24;;;;;;;13.57;8.95;;;27.70;87.00;;;;;;5027355;28;20029;-67
2021/08/13 04:37:50;;;;;;;11.68;8.98;;;27.70;86.20;;;;;;5021298;28;20101;-66
2021/08/13 04:40:15;;;;;;;9.57;8.63;;;27.70;85.40;;;;;;5020215;28;20557;-67
2021/08/13 04:42:41;;;;;;;8.90;8.00;;;27.80;84.40;;;;;;5005313;28;20038;-67
2021/08/13 04:45:07;;;;;;;9.52;8.63;;;27.80;84.70;;;;;;5015386;28;20038;-67
2021/08/13 04:47:33;;;;;;;9.13;8.15;;;27.70;84.50;;;;;;5019316;28;20057;-67
2021/08/13 04:49:59;;;;;;;10.77;9.68;;;27.60;83.90;;;;;;5004805;28;20127;-66
2021/08/13 04:52:24;;;;;;;9.27;8.20;;;27.70;83.90;;;;;;5019931;28;20053;-66
2021/08/13 04:54:50;;;;;;;10.95;7.68;;;27.60;84.60;;;;;;5021283;28;20038;-66
2021/08/13 04:57:15;;;;;;;10.43;8.38;;;27.60;84.40;;;;;;5028776;28;20479;-67
2021/08/13 04:59:41;;;;;;;11.52;8.85;;;27.70;84.20;;;;;;5020781;28;20137;-67
2021/08/13 05:02:07;;;;;;;9.90;8.95;;;27.70;84.30;;;;;;5016206;28;20057;-67
2021/08/13 05:04:32;;;;;;;10.40;9.48;;;27.60;83.90;;;;;;5018176;28;20033;-67
2021/08/13 05:07:03;;;;;;;10.77;9.82;;;27.70;83.80;;;;;;5027707;28;20117;-66
2021/08/13 05:09:29;;;;;;;9.73;8.52;;;27.70;83.90;;;;;;5010456;28;20491;-67
2021/08/13 05:11:54;;;;;;;10.07;9.13;;;27.80;83.40;;;;;;5009342;28;20072;-67
2021/08/13 05:14:20;;;;;;;11.35;8.20;;;27.70;83.00;;;;;;5022488;28;20036;-66
2021/08/13 05:16:46;;;;;;;8.95;8.02;;;27.60;83.30;;;;;;5010185;28;20472;-67
2021/08/13 05:19:11;;;;;;;8.48;7.70;;;27.70;83.10;;;;;;5023447;28;20460;-67
2021/08/13 05:21:38;;;;;;;9.38;7.90;;;27.80;83.00;;;;;;5007943;28;20041;-66
2021/08/13 05:24:04;;;;;;;9.13;8.15;;;27.70;82.60;;;;;;5027324;28;20045;-67
2021/08/13 05:26:29;;;;;;;9.85;8.63;;;27.70;82.70;;;;;;5022413;28;20033;-67
2021/08/13 05:28:55;;;;;;;10.10;8.23;;;27.70;82.50;;;;;;5026489;28;20091;-66
2021/08/13 05:31:20;;;;;;;9.88;7.82;;;27.70;82.20;;;;;;5021860;28;20053;-66
2021/08/13 05:33:46;;;;;;;8.25;7.45;;;27.80;82.10;;;;;;5023746;28;20499;-66
2021/08/13 05:36:15;;;;;;;8.80;7.53;;;27.80;81.90;;;;;;5018669;28;20037;-66
2021/08/13 05:38:41;;;;;;;11.43;7.63;;;27.80;81.90;;;;;;5008014;28;20476;-67
2021/08/13 05:41:07;;;;;;;11.07;8.43;;;27.80;81.50;;;;;;5002075;28;20053;-67
2021/08/13 05:43:32;;;;;;;9.43;8.00;;;27.90;80.80;;;;;;5000799;28;20056;-67
2021/08/13 05:45:58;;;;;;;8.55;7.75;;;27.90;80.70;;;;;;5004201;28;20443;-67
2021/08/13 05:48:23;;;;;;;11.60;7.50;;;28.00;79.90;;;;;;5027224;28;20407;-67
2021/08/13 05:50:49;;;;;;;10.05;8.15;;;28.00;79.90;;;;;;5024199;28;20104;-65
2021/08/13 05:53:14;;;;;;;10.20;8.15;;;28.00;79.50;;;;;;5032300;28;20056;-67
2021/08/13 05:55:40;;;;;;;10.57;7.38;;;28.00;78.80;;;;;;5024399;28;20383;-67
2021/08/13 05:58:06;;;;;;;9.50;7.30;;;28.10;78.20;;;;;;5030776;28;20195;-67
2021/08/13 06:00:31;;;;;;;10.07;7.95;;;28.10;78.00;;;;;;5032075;28;20563;-67
2021/08/13 06:02:59;;;;;;;7.13;6.55;;;28.10;77.20;;;;;;5015648;28;20045;-67
2021/08/13 06:05:25;;;;;;;9.57;7.05;;;28.10;76.40;;;;;;5011815;28;20041;-67
2021/08/13 06:07:51;;;;;;;8.70;7.25;;;28.20;76.00;;;;;;5026419;28;20059;-67
2021/08/13 06:10:18;;;;;;;9.25;6.45;;;28.20;75.80;;;;;;5010786;28;20124;-67
2021/08/13 06:12:44;;;;;;;9.90;6.85;;;28.10;75.00;;;;;;5026692;28;20052;-67
2021/08/13 06:15:10;;;;;;;7.82;6.93;;;28.20;75.40;;;;;;5029204;28;20046;-67
2021/08/13 06:17:36;;;;;;;9.05;7.45;;;28.20;75.10;;;;;;5024279;28;20491;-67
2021/08/13 06:20:03;;;;;;;8.90;8.00;;;28.20;74.70;;;;;;5028738;28;20053;-67
2021/08/13 06:22:29;;;;;;;8.50;7.72;;;28.20;74.80;;;;;;5021130;28;20045;-67
2021/08/13 06:24:54;;;;;;;9.30;7.22;;;28.30;74.70;;;;;;5030804;28;20450;-66
2021/08/13 06:27:20;;;;;;;7.90;6.97;;;28.40;74.60;;;;;;5023222;28;20047;-67
2021/08/13 06:29:45;;;;;;;11.13;7.45;;;28.40;75.50;;;;;;5031236;28;20029;-67
2021/08/13 06:32:11;;;;;;;11.93;7.70;;;28.50;74.80;;;;;;5025446;28;20380;-67
2021/08/13 06:34:36;;;;;;;9.18;7.45;;;28.50;74.80;;;;;;5025366;28;20045;-67
2021/08/13 06:37:02;;;;;;;8.48;7.57;;;28.50;74.80;;;;;;5025923;28;20029;-67
2021/08/13 06:39:28;;;;;;;9.27;8.15;;;28.50;74.60;;;;;;5025937;28;20057;-67
2021/08/13 06:41:54;;;;;;;13.60;7.35;;;28.60;74.40;;;;;;5029851;28;20064;-67
2021/08/13 06:44:19;;;;;;;11.93;7.82;;;28.60;74.80;;;;;;5026900;28;20537;-65
2021/08/13 06:46:45;;;;;;;9.10;7.50;;;28.60;74.60;;;;;;5029876;28;20387;-67
2021/08/13 06:49:10;;;;;;;8.95;6.97;;;28.70;73.90;;;;;;5025233;28;20041;-67
2021/08/13 06:51:36;;;;;;;8.25;7.07;;;28.70;73.80;;;;;;5025185;28;20455;-67
2021/08/13 06:54:01;;;;;;;8.75;7.90;;;28.70;73.80;;;;;;5024130;28;20111;-67
2021/08/13 06:56:27;;;;;;;8.43;7.60;;;28.80;73.00;;;;;;5029361;28;20091;-67
2021/08/13 06:58:55;;;;;;;13.48;7.47;;;28.70;72.40;;;;;;5024739;28;20121;-67
2021/08/13 07:01:21;;;;;;;7.85;7.25;;;28.70;72.60;;;;;;5009874;28;20034;-66
2021/08/13 07:03:46;;;;;;;9.43;6.90;;;28.80;72.70;;;;;;5024475;28;20099;-67
2021/08/13 07:06:12;;;;;;;8.23;7.45;;;28.80;72.00;;;;;;5026134;28;20081;-67
2021/08/13 07:08:37;;;;;;;9.82;6.95;;;28.80;72.20;;;;;;5004785;28;20491;-67
2021/08/13 07:11:03;;;;;;;8.93;6.60;;;28.80;71.80;;;;;;5023096;28;20120;-67
2021/08/13 07:13:29;;;;;;;10.52;7.70;;;28.90;72.50;;;;;;5025702;28;20072;-67
2021/08/13 07:15:54;;;;;;;8.40;7.55;;;29.00;72.20;;;;;;5025166;28;20092;-67
2021/08/13 07:18:20;;;;;;;12.55;8.02;;;29.00;72.20;;;;;;5030784;28;20030;-66
2021/08/13 07:20:45;;;;;;;9.68;7.60;;;29.00;71.90;;;;;;5024580;28;20044;-67
2021/08/13 07:23:11;;;;;;;8.32;6.95;;;29.00;71.90;;;;;;5017689;28;20069;-67
2021/08/13 07:25:36;;;;;;;13.60;7.38;;;29.10;71.30;;;;;;5014015;28;20443;-67
2021/08/13 07:28:02;;;;;;;10.02;7.25;;;29.10;70.80;;;;;;5027267;28;20109;-67
2021/08/13 07:30:28;;;;;;;8.18;7.40;;;29.10;70.00;;;;;;5007089;28;20397;-67
2021/08/13 07:32:53;;;;;;;8.82;6.68;;;29.10;69.40;;;;;;5030334;28;20049;-67
2021/08/13 07:35:19;;;;;;;7.75;6.72;;;29.10;69.40;;;;;;5016734;28;20052;-57
2021/08/13 07:37:44;;;;;;;10.15;6.97;;;29.10;68.80;;;;;;5028840;28;20090;-67
2021/08/13 07:40:11;;;;;;;9.15;7.60;;;29.20;69.20;;;;;;5017479;28;20039;-67
2021/08/13 07:42:37;;;;;;;9.20;7.75;;;29.20;68.20;;;;;;5022950;28;20116;-67
2021/08/13 07:45:04;;;;;;;7.95;6.50;;;29.30;67.70;;;;;;5024276;28;20502;-67
2021/08/13 07:47:30;;;;;;;8.05;6.53;;;29.30;68.30;;;;;;5028140;28;20387;-67
2021/08/13 07:49:56;;;;;;;10.77;7.00;;;29.30;67.80;;;;;;5025961;28;20049;-67
2021/08/13 07:52:22;;;;;;;7.57;6.88;;;29.30;67.60;;;;;;5025797;28;20041;-67
2021/08/13 07:54:47;;;;;;;9.15;7.22;;;29.40;67.80;;;;;;5021648;28;20419;-67
2021/08/13 07:57:13;;;;;;;10.52;7.80;;;29.40;67.50;;;;;;5020742;28;20379;-67
2021/08/13 07:59:38;;;;;;;7.78;6.95;;;29.50;67.40;;;;;;5000005;28;20041;-67
2021/08/13 08:02:04;;;;;;;9.68;7.13;;;29.50;67.40;;;;;;5008520;28;20037;-67
2021/08/13 08:04:30;;;;;;;9.98;8.07;;;29.50;66.90;;;;;;5011187;28;20097;-67
2021/08/13 08:06:57;;;;;;;8.90;7.43;;;29.60;67.50;;;;;;5003559;28;20436;-67
2021/08/13 08:09:25;;;;;;;8.55;7.35;;;29.60;67.10;;;;;;5023568;28;20041;-68
2021/08/13 08:11:52;;;;;;;10.65;7.32;;;29.70;66.70;;;;;;5002062;28;20503;-66
2021/08/13 08:14:17;;;;;;;11.45;7.30;;;29.70;67.00;;;;;;5011121;28;20092;-67
2021/08/13 08:16:43;;;;;;;10.43;7.18;;;29.70;66.30;;;;;;5006549;28;20038;-67
2021/08/13 08:19:09;;;;;;;8.73;7.63;;;29.80;66.50;;;;;;5008128;28;20045;-67
2021/08/13 08:21:35;;;;;;;9.07;8.27;;;29.90;66.40;;;;;;5017304;28;20045;-67
2021/08/13 08:24:01;;;;;;;9.73;7.78;;;29.90;66.20;;;;;;5027056;28;20063;-67
2021/08/13 08:26:26;;;;;;;9.48;8.02;;;30.00;66.40;;;;;;5023007;28;20034;-68
2021/08/13 08:28:52;;;;;;;10.63;7.90;;;30.00;66.70;;;;;;5011324;28;20452;-67
2021/08/13 08:31:18;;;;;;;11.35;8.90;;;30.00;66.70;;;;;;5018599;28;20044;-67
2021/08/13 08:33:43;;;;;;;10.18;8.65;;;29.90;66.50;;;;;;5022528;28;20111;-67
2021/08/13 08:36:09;;;;;;;12.48;8.70;;;30.00;66.60;;;;;;5019490;28;20132;-67
2021/08/13 08:38:35;;;;;;;8.40;7.60;;;30.10;66.20;;;;;;5022882;28;20026;-67
2021/08/13 08:41:05;;;;;;;9.40;8.45;;;30.20;66.10;;;;;;5026240;28;20125;-67
2021/08/13 08:43:31;;;;;;;9.95;8.70;;;30.20;65.80;;;;;;5010682;28;20046;-67
2021/08/13 08:45:58;;;;;;;10.43;9.48;;;30.30;65.50;;;;;;5007971;28;20451;-67
2021/08/13 08:48:24;;;;;;;8.25;7.43;;;30.40;65.20;;;;;;5005107;28;20503;-67
2021/08/13 08:50:50;;;;;;;10.02;9.02;;;30.40;65.20;;;;;;5025376;28;20103;-63
2021/08/13 08:53:21;;;;;;;12.05;9.52;;;30.40;65.50;;;;;;5012937;28;20098;-67
2021/08/13 08:55:47;;;;;;;11.93;9.63;;;30.50;66.00;;;;;;5020078;28;20057;-67
2021/08/13 08:58:13;;;;;;;11.73;9.63;;;30.50;65.80;;;;;;5022100;28;20034;-67
2021/08/13 09:00:39;;;;;;;10.93;9.82;;;30.40;66.20;;;;;;5018299;28;20038;-67
2021/08/13 09:03:06;;;;;;;10.50;8.23;;;30.50;65.70;;;;;;5003336;28;20041;-67
2021/08/13 09:05:31;;;;;;;16.13;9.52;;;30.60;65.50;;;;;;5014118;28;20033;-68
2021/08/13 09:07:57;;;;;;;11.65;10.48;;;30.60;65.90;;;;;;5025786;28;20698;-67
2021/08/13 09:10:22;;;;;;;11.13;10.13;;;30.60;65.60;;;;;;5027384;28;20034;-67
2021/08/13 09:12:52;;;;;;;13.90;11.18;;;30.80;66.00;;;;;;5027354;28;20038;-67
2021/08/13 09:15:36;;;;;;;14.80;11.63;;;30.80;65.90;;;;;;5023462;28;20484;-67
2021/08/13 09:18:18;;;;;;;11.68;9.50;;;30.70;65.70;;;;;;5000754;28;20046;-67
2021/08/13 09:20:45;;;;;;;16.98;11.63;;;30.80;66.20;;;;;;5024154;28;20061;-67
2021/08/13 09:23:31;;;;;;;12.68;10.85;;;30.90;66.30;;;;;;5027855;28;20045;-67
2021/08/13 09:26:00;;;;;;;12.50;10.60;;;31.00;66.50;;;;;;5028418;28;20029;-67
2021/08/13 09:28:42;;;;;;;11.77;9.93;;;31.00;65.80;;;;;;5023021;28;20060;-67
2021/08/13 09:31:13;;;;;;;13.63;11.07;;;31.00;65.80;;;;;;4989233;28;20179;-67
2021/08/13 09:33:40;;;;;;;13.40;11.98;;;31.00;66.00;;;;;;5031034;28;20045;-67
2021/08/13 09:36:06;;;;;;;13.25;11.95;;;31.00;65.20;;;;;;5027445;28;20036;-67
2021/08/13 09:38:32;;;;;;;14.38;12.13;;;31.00;65.30;;;;;;5029371;28;20076;-67
2021/08/13 09:41:10;;;;;;;14.05;12.68;;;31.10;64.80;;;;;;5028043;28;20072;-67
2021/08/13 09:43:58;;;;;;;14.75;13.23;;;31.20;65.30;;;;;;5010412;28;20041;-67
2021/08/13 09:46:25;;;;;;;16.52;12.70;;;31.20;66.70;;;;;;5006284;28;20440;-68
2021/08/13 09:48:51;;;;;;;14.82;13.40;;;31.30;65.50;;;;;;5030367;28;20041;-68
2021/08/13 09:51:34;;;;;;;12.88;11.57;;;31.60;64.10;;;;;;5022818;28;20049;-67
2021/08/13 09:54:03;;;;;;;18.77;15.52;;;31.70;64.00;;;;;;5024356;28;20084;-68
2021/08/13 09:56:33;;;;;;;17.55;14.90;;;31.70;65.60;;;;;;5026601;28;20092;-67
2021/08/13 09:59:17;;;;;;;15.00;13.50;;;31.80;64.60;;;;;;5012194;28;20039;-66
2021/08/13 10:01:52;;;;;;;15.95;13.80;;;31.70;63.90;;;;;;5025775;28;20096;-67
2021/08/13 10:04:33;;;;;;;16.73;12.55;;;31.80;63.60;;;;;;5029188;28;20041;-66
2021/08/13 10:06:59;;;;;;;14.52;13.05;;;31.90;63.10;;;;;;5006709;28;20195;-67
2021/08/13 10:09:29;;;;;;;18.92;17.13;;;32.00;63.00;;;;;;5017286;28;20136;-68
2021/08/13 10:12:07;;;;;;;21.20;18.90;;;32.00;62.70;;;;;;5017410;28;20046;-68
2021/08/13 10:14:40;;;;;;;17.73;15.88;;;32.00;62.90;;;;;;4958286;28;20125;-67
2021/08/13 10:17:09;;;;;;;23.45;17.02;;;32.10;63.30;;;;;;5007451;28;20030;-68
2021/08/13 10:19:34;;;;;;;16.40;14.43;;;32.00;63.10;;;;;;5010460;28;20030;-67
2021/08/13 10:22:00;;;;;;;16.65;15.02;;;32.20;62.70;;;;;;5011301;28;20369;-67
2021/08/13 10:24:28;;;;;;;18.38;16.55;;;32.20;62.40;;;;;;5010394;28;20064;-62
2021/08/13 10:26:55;;;;;;;18.77;16.88;;;32.40;60.70;;;;;;5010847;28;20080;-67
2021/08/13 10:29:21;;;;;;;23.20;19.67;;;32.40;60.80;;;;;;5010018;28;20069;-67
2021/08/13 10:31:47;;;;;;;17.83;15.95;;;32.40;61.20;;;;;;5005677;28;20205;-67
2021/08/13 10:34:12;;;;;;;18.30;16.50;;;32.70;60.10;;;;;;5017694;28;20046;-67
2021/08/13 10:36:40;;;;;;;18.17;15.02;;;32.90;59.60;;;;;;5017336;28;20971;-67
2021/08/13 10:39:07;;;;;;;14.10;12.57;;;32.80;58.70;;;;;;5018099;28;20041;-67
2021/08/13 10:41:39;;;;;;;13.68;12.30;;;32.90;58.10;;;;;;5012028;28;20046;-67
2021/08/13 10:44:09;;;;;;;17.63;14.10;;;33.20;57.10;;;;;;5013058;28;20034;-67
2021/08/13 10:46:37;;;;;;;19.40;17.58;;;33.40;57.80;;;;;;5025709;28;20039;-67
2021/08/13 10:49:04;;;;;;;18.58;16.55;;;33.50;57.50;;;;;;5002258;28;20424;-67
2021/08/13 10:51:33;;;;;;;23.23;18.48;;;33.60;57.30;;;;;;5003059;28;20372;-67
2021/08/13 10:54:09;;;;;;;17.25;15.10;;;33.40;57.70;;;;;;5005639;28;20092;-67
2021/08/13 10:56:41;;;;;;;15.45;13.95;;;33.60;56.90;;;;;;5022018;28;20438;-67
2021/08/13 10:59:07;;;;;;;18.27;13.70;;;33.50;56.40;;;;;;4999152;28;20057;-67
2021/08/13 11:01:34;;;;;;;17.88;15.82;;;33.50;55.80;;;;;;5006246;28;20092;-67
2021/08/13 11:04:00;;;;;;;18.55;12.63;;;33.60;56.00;;;;;;5009034;28;20103;-67
2021/08/13 11:06:37;;;;;;;13.93;11.90;;;33.60;55.00;;;;;;5007039;28;20050;-68
2021/08/13 11:09:10;;;;;;;13.75;11.60;;;33.90;52.50;;;;;;4978666;28;20034;-67
2021/08/13 11:11:54;;;;;;;12.70;10.52;;;33.80;51.90;;;;;;5010168;28;20395;-67
2021/08/13 11:14:33;;;;;;;12.82;11.68;;;33.90;50.50;;;;;;5006979;28;20057;-67
2021/08/13 11:17:00;;;;;;;26.92;23.42;;;34.10;50.80;;;;;;5031620;28;20044;-67
2021/08/13 11:19:26;;;;;;;21.50;19.40;;;34.20;53.00;;;;;;5024558;28;20403;-68
2021/08/13 11:21:58;;;;;;;26.45;23.33;;;34.30;54.00;;;;;;5025197;28;20033;-68
2021/08/13 11:24:53;;;;;;;17.77;16.10;;;34.50;54.20;;;;;;5022444;28;20128;-67
2021/08/13 11:27:18;;;;;;;20.27;18.42;;;34.60;54.30;;;;;;4973885;28;20038;-67
2021/08/13 11:29:44;;;;;;;18.95;17.20;;;34.70;53.30;;;;;;5024026;28;20037;-67
2021/08/13 11:32:18;;;;;;;18.00;16.45;;;35.20;52.20;;;;;;5025203;28;20022;-68
2021/08/13 11:34:51;;;;;;;18.40;15.88;;;35.30;50.80;;;;;;5022204;28;20041;-68
2021/08/13 11:37:37;;;;;;;16.40;14.70;;;35.70;49.20;;;;;;5026716;28;20041;-67
2021/08/13 11:40:07;;;;;;;14.45;13.00;;;36.50;46.30;;;;;;4958937;28;20117;-67
2021/08/13 11:42:35;;;;;;;15.55;14.13;;;36.70;45.30;;;;;;5008626;28;20038;-68
2021/08/13 11:45:09;;;;;;;21.15;19.05;;;36.90;44.50;;;;;;5016990;28;20057;-68
2021/08/13 11:47:35;;;;;;;18.38;14.32;;;37.30;42.60;;;;;;5027240;28;20034;-68
2021/08/13 11:50:07;;;;;;;21.55;16.77;;;37.60;42.90;;;;;;5011151;28;20154;-67
2021/08/13 11:52:35;;;;;;;13.77;12.38;;;38.40;41.30;;;;;;4994912;28;20048;-68
2021/08/13 11:55:21;;;;;;;15.27;13.85;;;39.20;39.10;;;;;;5009964;28;20515;-68
2021/08/13 11:57:47;;;;;;;15.32;13.93;;;39.20;37.70;;;;;;5028674;28;20045;-68
2021/08/13 12:00:16;;;;;;;15.43;13.95;;;38.90;38.40;;;;;;5021974;28;20045;-68
2021/08/13 12:02:42;;;;;;;15.82;12.43;;;38.90;38.20;;;;;;5030950;28;20046;-68
2021/08/13 12:05:09;;;;;;;13.10;12.07;;;39.10;38.40;;;;;;5012899;28;20728;-68
2021/08/13 12:07:36;;;;;;;16.27;13.15;;;39.30;37.60;;;;;;5031885;28;20028;-68
2021/08/13 12:10:13;;;;;;;13.90;12.60;;;39.30;37.20;;;;;;5026042;28;20079;-68
2021/08/13 12:12:40;;;;;;;15.35;13.93;;;39.00;36.30;;;;;;5026871;28;20038;-68
2021/08/13 12:15:06;;;;;;;12.98;11.77;;;39.10;36.80;;;;;;5027901;28;20053;-68
2021/08/13 12:17:32;;;;;;;11.05;10.07;;;38.70;37.10;;;;;;5016846;28;20038;-68
2021/08/13 12:19:59;;;;;;;12.10;10.98;;;40.70;35.40;;;;;;5010454;28;20411;-67
2021/08/13 12:22:39;;;;;;;15.75;10.38;;;42.00;32.00;;;;;;5026297;28;20037;-68
2021/08/13 12:25:10;;;;;;;10.55;9.50;;;42.70;31.20;;;;;;4972246;28;20490;-68
2021/08/13 12:27:38;;;;;;;11.30;10.35;;;42.50;30.50;;;;;;5026342;28;20034;-68
2021/08/13 12:30:23;;;;;;;9.75;8.85;;;42.60;30.00;;;;;;5027599;28;20048;-68
2021/08/13 12:32:51;;;;;;;12.15;9.77;;;42.10;29.00;;;;;;5020299;28;20077;-68
2021/08/13 12:35:17;;;;;;;11.05;9.95;;;42.40;28.80;;;;;;5025703;28;20407;-68
2021/08/13 12:37:44;;;;;;;34.67;13.00;;;43.10;28.70;;;;;;5022147;28;20070;-68
2021/08/13 12:40:12;;;;;;;16.60;10.75;;;43.60;28.20;;;;;;5026534;28;20033;-68
2021/08/13 12:42:39;;;;;;;11.75;10.43;;;43.10;27.40;;;;;;5024960;28;20041;-68
2021/08/13 12:45:09;;;;;;;10.50;9.57;;;42.40;27.80;;;;;;5025748;28;20033;-68